createdAt,value
2023-01-24T00:02:47.503Z,57.66
2023-01-24T00:05:50.217Z,57.92
2023-01-24T00:08:52.225Z,57.59
2023-01-24T00:11:54.147Z,58.49
2023-01-24T00:14:56.283Z,59.19
2023-01-24T00:17:58.539Z,58.02
2023-01-24T00:21:04.830Z,58.55
2023-01-24T00:24:06.848Z,60.77
2023-01-24T00:27:10.970Z,60.53
2023-01-24T00:30:12.961Z,59.47
2023-01-24T00:33:14.965Z,56.86
2023-01-24T00:36:17.300Z,56.82
2023-01-24T00:39:19.269Z,55.87
2023-01-24T00:42:21.351Z,55.79
2023-01-24T00:45:23.930Z,55.15
2023-01-24T00:48:26.084Z,54.20
2023-01-24T00:51:28.225Z,54.46
2023-01-24T00:54:30.331Z,54.55
2023-01-24T00:57:32.319Z,54.85
2023-01-24T01:00:35.586Z,54.84
2023-01-24T01:03:37.552Z,56.62
2023-01-24T01:06:39.500Z,55.92
2023-01-24T01:09:41.450Z,55.11
2023-01-24T01:12:43.366Z,55.50
2023-01-24T01:15:45.370Z,55.29
2023-01-24T01:18:47.925Z,56.52
2023-01-24T01:21:50.898Z,55.01
2023-01-24T01:24:52.884Z,56.89
2023-01-24T01:27:54.871Z,56.80
2023-01-24T01:30:56.891Z,56.29
2023-01-24T01:33:59.041Z,54.72
2023-01-24T01:37:01.067Z,53.93
2023-01-24T01:40:03.435Z,54.08
2023-01-24T01:43:06.384Z,53.59
2023-01-24T01:46:21.374Z,56.82
2023-01-24T01:49:24.858Z,55.13
2023-01-24T01:52:27.271Z,55.67
2023-01-24T01:55:31.989Z,57.28
2023-01-24T01:58:34.273Z,55.62
2023-01-24T02:01:36.432Z,55.18
2023-01-24T02:04:40.181Z,56.06
2023-01-24T02:07:45.788Z,57.26
2023-01-24T02:11:06.262Z,55.82
2023-01-24T02:14:28.091Z,54.79
2023-01-24T02:17:30.419Z,55.39
2023-01-24T02:20:34.004Z,55.99
2023-01-24T02:23:53.081Z,55.22
2023-01-24T02:26:55.102Z,56.06
2023-01-24T02:29:57.133Z,55.35
2023-01-24T02:32:59.179Z,55.18
2023-01-24T02:36:13.009Z,57.96
2023-01-24T02:39:16.121Z,57.23
2023-01-24T02:42:25.753Z,56.68
2023-01-24T02:45:28.600Z,55.64
2023-01-24T02:48:30.449Z,56.01
2023-01-24T02:51:51.056Z,55.84
2023-01-24T02:54:52.935Z,57.63
2023-01-24T02:58:07.582Z,53.92
2023-01-24T03:01:09.603Z,53.85
2023-01-24T03:04:12.896Z,53.53
2023-01-24T03:07:14.761Z,54.51
2023-01-24T03:10:17.420Z,53.74
2023-01-24T03:13:38.232Z,54.73
2023-01-24T03:16:59.041Z,55.24
2023-01-24T03:20:19.340Z,58.17
2023-01-24T03:23:39.695Z,55.91
2023-01-24T03:27:00.264Z,54.61
2023-01-24T03:30:21.086Z,56.95
2023-01-24T03:33:41.717Z,54.67
2023-01-24T03:36:43.595Z,57.30
2023-01-24T03:40:01.083Z,55.33
2023-01-24T03:43:03.292Z,56.26
2023-01-24T03:46:05.382Z,55.34
2023-01-24T03:49:07.680Z,55.82
2023-01-24T03:52:31.086Z,55.75
2023-01-24T03:55:33.049Z,54.41
2023-01-24T03:58:35.086Z,57.68
2023-01-24T04:01:37.148Z,58.24
2023-01-24T04:04:57.837Z,54.95
2023-01-24T04:07:59.748Z,53.33
2023-01-24T04:11:01.707Z,54.36
2023-01-24T04:14:03.692Z,58.91
2023-01-24T04:17:05.705Z,55.71
2023-01-24T04:20:08.214Z,54.26
2023-01-24T04:23:11.132Z,54.36
2023-01-24T04:26:13.422Z,53.57
2023-01-24T04:29:15.379Z,55.04
2023-01-24T04:32:17.351Z,56.15
2023-01-24T04:35:20.881Z,54.94
2023-01-24T04:38:23.091Z,53.91
2023-01-24T04:41:25.123Z,54.61
2023-01-24T04:44:27.132Z,55.55
2023-01-24T04:47:29.128Z,54.70
2023-01-24T04:50:30.991Z,52.80
2023-01-24T04:53:34.902Z,53.27
2023-01-24T04:56:36.843Z,53.18
2023-01-24T04:59:38.834Z,52.20
2023-01-24T05:02:40.712Z,51.77
2023-01-24T05:05:42.787Z,51.82
2023-01-24T05:08:44.689Z,51.89
2023-01-24T05:11:46.820Z,53.50
2023-01-24T05:14:48.885Z,54.75
2023-01-24T05:17:50.827Z,56.03
2023-01-24T05:20:52.851Z,55.79
2023-01-24T05:23:54.866Z,55.82
2023-01-24T05:26:56.778Z,56.39
2023-01-24T05:29:58.761Z,55.72
2023-01-24T05:33:00.702Z,54.98
2023-01-24T05:36:06.984Z,56.16
2023-01-24T05:39:08.876Z,56.91
2023-01-24T05:42:11.192Z,56.75
2023-01-24T05:45:13.081Z,56.30
2023-01-24T05:48:15.049Z,54.22
2023-01-24T05:51:18.031Z,54.11
2023-01-24T05:54:20.110Z,52.73
2023-01-24T05:57:22.223Z,55.87
2023-01-24T06:00:24.366Z,56.25
2023-01-24T06:03:26.531Z,56.48
2023-01-24T06:06:28.494Z,56.64
2023-01-24T06:09:30.416Z,55.56
2023-01-24T06:12:33.176Z,57.61
2023-01-24T06:15:35.172Z,58.15
2023-01-24T06:18:37.112Z,57.08
2023-01-24T06:21:45.731Z,55.80
2023-01-24T06:24:47.817Z,56.02
2023-01-24T06:27:49.878Z,56.35
2023-01-24T06:30:54.043Z,56.18
2023-01-24T06:34:14.787Z,55.84
2023-01-24T06:37:24.734Z,53.60
2023-01-24T06:40:26.954Z,54.52
2023-01-24T06:43:29.073Z,56.17
2023-01-24T06:46:31.369Z,56.75
2023-01-24T06:49:33.376Z,58.74
2023-01-24T06:52:35.774Z,57.31
2023-01-24T06:55:38.189Z,59.26
2023-01-24T06:58:40.290Z,58.77
2023-01-24T07:01:42.208Z,59.61
2023-01-24T07:04:44.439Z,62.55
2023-01-24T07:07:46.437Z,60.96
2023-01-24T07:10:48.379Z,61.07
2023-01-24T07:13:52.600Z,60.91
2023-01-24T07:16:56.685Z,61.21
2023-01-24T07:19:59.145Z,58.77
2023-01-24T07:23:01.297Z,60.26
2023-01-24T07:26:04.627Z,60.43
2023-01-24T07:29:09.255Z,58.84
2023-01-24T07:32:14.019Z,60.77
2023-01-24T07:35:16.188Z,62.38
2023-01-24T07:38:18.162Z,60.44
2023-01-24T07:41:20.050Z,61.56
2023-01-24T07:44:22.065Z,60.30
2023-01-24T07:47:24.788Z,60.25
2023-01-24T07:50:27.125Z,61.25
2023-01-24T07:53:29.340Z,58.68
2023-01-24T07:56:33.994Z,60.92
2023-01-24T07:59:38.981Z,60.37
2023-01-24T08:02:41.942Z,61.05
2023-01-24T08:05:45.276Z,58.74
2023-01-24T08:08:47.278Z,57.51
2023-01-24T08:11:49.379Z,57.90
2023-01-24T08:14:51.470Z,58.39
2023-01-24T08:17:53.692Z,59.97
2023-01-24T08:20:58.831Z,59.58
2023-01-24T08:24:01.133Z,57.91
2023-01-24T08:27:04.155Z,59.86
2023-01-24T08:30:06.848Z,56.27
2023-01-24T08:33:09.628Z,54.81
2023-01-24T08:36:11.497Z,56.30
2023-01-24T08:39:21.193Z,55.23
2023-01-24T08:42:30.680Z,54.32
2023-01-24T08:45:32.941Z,56.15
2023-01-24T08:48:34.869Z,51.81
2023-01-24T08:51:36.785Z,51.88
2023-01-24T08:54:40.260Z,55.68
2023-01-24T08:57:42.252Z,56.95
2023-01-24T09:00:44.256Z,54.94
2023-01-24T09:03:46.502Z,55.85
2023-01-24T09:06:50.889Z,55.04
2023-01-24T09:09:52.739Z,56.79
2023-01-24T09:12:54.705Z,55.25
2023-01-24T09:15:58.220Z,54.01
2023-01-24T09:19:00.342Z,53.04
2023-01-24T09:22:04.743Z,51.88
2023-01-24T09:25:09.024Z,54.60
2023-01-24T09:28:11.049Z,52.07
2023-01-24T09:31:14.193Z,52.72
2023-01-24T09:34:16.186Z,55.76
2023-01-24T09:37:19.277Z,52.86
2023-01-24T09:40:25.506Z,50.61
2023-01-24T09:43:27.567Z,49.14
2023-01-24T09:46:31.514Z,49.09
2023-01-24T09:49:43.729Z,52.49
2023-01-24T09:52:47.309Z,52.43
2023-01-24T09:55:49.374Z,54.07
2023-01-24T09:58:51.338Z,51.57
2023-01-24T10:01:53.523Z,51.82
2023-01-24T10:04:55.625Z,50.10
2023-01-24T10:08:07.601Z,49.32
2023-01-24T10:11:15.689Z,48.97
2023-01-24T10:14:36.199Z,49.01
2023-01-24T10:17:38.271Z,50.78
2023-01-24T10:20:46.361Z,51.03
2023-01-24T10:23:49.363Z,50.39
2023-01-24T10:26:52.083Z,50.03
2023-01-24T10:29:56.552Z,48.23
2023-01-24T10:33:00.249Z,49.89
2023-01-24T10:36:02.509Z,45.01
2023-01-24T10:39:05.059Z,39.52
2023-01-24T10:42:17.885Z,40.91
2023-01-24T10:45:39.038Z,38.55
2023-01-24T10:48:43.051Z,38.28
2023-01-24T10:51:45.864Z,36.99
2023-01-24T10:54:58.228Z,41.11
2023-01-24T10:58:00.226Z,39.94
2023-01-24T11:01:06.669Z,40.03
2023-01-24T11:04:28.812Z,40.34
2023-01-24T11:07:34.705Z,41.63
2023-01-24T11:10:37.417Z,43.90
2023-01-24T11:13:41.627Z,42.84
2023-01-24T11:16:44.892Z,44.19
2023-01-24T11:19:46.989Z,43.70
2023-01-24T11:22:51.920Z,42.30
2023-01-24T11:25:54.838Z,44.60
2023-01-24T11:29:00.927Z,44.64
2023-01-24T11:32:06.099Z,47.52
2023-01-24T11:35:14.381Z,44.04
2023-01-24T11:38:27.195Z,43.42
2023-01-24T11:41:29.295Z,43.66
2023-01-24T11:44:37.130Z,43.10
2023-01-24T11:47:40.737Z,42.78
2023-01-24T11:51:11.836Z,44.37
2023-01-24T11:54:14.562Z,43.67
2023-01-24T11:57:21.376Z,43.60
2023-01-24T12:00:27.219Z,44.74
2023-01-24T12:04:04.576Z,44.26
2023-01-24T12:07:21.709Z,46.32
2023-01-24T12:10:26.253Z,44.53
2023-01-24T12:13:44.751Z,44.09
2023-01-24T12:17:15.091Z,43.05
2023-01-24T12:20:40.126Z,43.03
2023-01-24T12:24:01.508Z,42.37
2023-01-24T12:27:05.836Z,39.58
2023-01-24T12:30:16.711Z,38.89
2023-01-24T12:33:38.297Z,41.45
2023-01-24T12:36:46.022Z,40.96
2023-01-24T12:39:52.352Z,41.53
2023-01-24T12:42:59.229Z,41.79
2023-01-24T12:46:01.203Z,41.73
2023-01-24T12:49:14.538Z,41.39
2023-01-24T12:52:23.838Z,43.83
2023-01-24T12:55:33.829Z,43.99
2023-01-24T12:58:36.989Z,42.82
2023-01-24T13:01:45.730Z,41.24
2023-01-24T13:04:56.712Z,42.42
2023-01-24T13:08:12.164Z,45.43
2023-01-24T13:11:21.631Z,43.22
2023-01-24T13:14:35.127Z,43.55
2023-01-24T13:17:57.984Z,43.43
2023-01-24T13:21:02.936Z,44.55
2023-01-24T13:24:08.005Z,45.35
2023-01-24T13:27:31.681Z,45.72
2023-01-24T13:30:50.808Z,48.11
2023-01-24T13:33:53.794Z,51.51
2023-01-24T13:36:57.857Z,49.32
2023-01-24T13:40:07.269Z,47.69
2023-01-24T13:43:30.340Z,47.64
2023-01-24T13:46:44.562Z,47.34
2023-01-24T13:49:49.583Z,49.15
2023-01-24T13:52:52.615Z,48.57
2023-01-24T13:56:01.246Z,49.63
2023-01-24T13:59:03.188Z,48.71
2023-01-24T14:02:24.207Z,48.68
2023-01-24T14:05:26.535Z,51.20
2023-01-24T14:08:28.413Z,51.70
2023-01-24T14:11:36.264Z,50.21
2023-01-24T14:14:58.375Z,49.45
2023-01-24T14:18:00.326Z,49.05
2023-01-24T14:21:02.303Z,50.58
2023-01-24T14:24:20.224Z,50.78
2023-01-24T14:27:26.310Z,49.09
2023-01-24T14:30:33.148Z,49.93
2023-01-24T14:33:38.154Z,48.57
2023-01-24T14:36:40.155Z,49.42
2023-01-24T14:39:42.309Z,49.03
2023-01-24T14:42:44.248Z,48.57
2023-01-24T14:45:46.996Z,50.16
2023-01-24T14:48:48.946Z,49.49
2023-01-24T14:51:50.970Z,48.59
2023-01-24T14:54:52.866Z,48.69
2023-01-24T14:57:55.100Z,49.05
2023-01-24T15:00:58.296Z,50.22
2023-01-24T15:04:00.722Z,49.64
2023-01-24T15:07:09.051Z,50.31
2023-01-24T15:10:14.893Z,50.55
2023-01-24T15:13:40.277Z,50.90
2023-01-24T15:16:54.708Z,50.71
2023-01-24T15:20:01.192Z,50.40
2023-01-24T15:23:10.816Z,49.90
2023-01-24T15:26:26.180Z,50.49
2023-01-24T15:29:44.801Z,51.13
2023-01-24T15:32:49.466Z,51.26
2023-01-24T15:35:51.962Z,52.12
2023-01-24T15:38:57.863Z,51.55
2023-01-24T15:42:18.659Z,52.03
2023-01-24T15:45:20.605Z,53.81
2023-01-24T15:48:23.711Z,53.94
2023-01-24T15:51:30.365Z,55.55
2023-01-24T15:54:32.613Z,55.04
2023-01-24T15:57:35.475Z,56.29
2023-01-24T16:00:41.237Z,55.10
2023-01-24T16:03:43.355Z,55.33
2023-01-24T16:06:45.465Z,54.85
2023-01-24T16:09:49.365Z,59.23
2023-01-24T16:12:51.863Z,59.23
2023-01-24T16:15:54.330Z,58.34
2023-01-24T16:18:59.025Z,60.03
2023-01-24T16:22:00.918Z,61.18
2023-01-24T16:25:03.102Z,61.50
2023-01-24T16:28:05.370Z,61.41
2023-01-24T16:31:07.888Z,60.56
2023-01-24T16:34:09.945Z,60.78
2023-01-24T16:37:12.060Z,58.61
2023-01-24T16:40:15.083Z,58.14
2023-01-24T16:43:18.824Z,58.33
2023-01-24T16:46:21.581Z,58.79
2023-01-24T16:49:23.637Z,58.33
2023-01-24T16:52:26.163Z,58.57
2023-01-24T16:55:29.805Z,58.83
2023-01-24T16:58:32.673Z,59.42
2023-01-24T17:01:34.589Z,58.41
2023-01-24T17:04:36.755Z,58.43
2023-01-24T17:07:38.844Z,58.56
2023-01-24T17:10:41.686Z,58.59
2023-01-24T17:13:43.900Z,57.92
2023-01-24T17:16:45.773Z,57.28
2023-01-24T17:19:47.624Z,57.81
2023-01-24T17:22:49.805Z,58.04
2023-01-24T17:25:51.777Z,58.61
2023-01-24T17:28:53.848Z,59.56
2023-01-24T17:31:56.393Z,57.78
2023-01-24T17:34:58.431Z,57.84
2023-01-24T17:38:00.397Z,58.49
2023-01-24T17:41:02.443Z,57.42
2023-01-24T17:44:04.568Z,57.14
2023-01-24T17:47:06.411Z,57.62
2023-01-24T17:50:08.597Z,58.27
2023-01-24T17:53:10.749Z,57.77
2023-01-24T17:56:14.036Z,57.32
2023-01-24T17:59:16.015Z,58.46
2023-01-24T18:02:18.010Z,58.64
2023-01-24T18:05:20.146Z,58.59
2023-01-24T18:08:23.949Z,56.76
2023-01-24T18:11:26.083Z,57.06
2023-01-24T18:14:28.195Z,57.82
2023-01-24T18:17:30.090Z,58.35
2023-01-24T18:20:32.023Z,62.30
2023-01-24T18:23:33.916Z,62.33
2023-01-24T18:26:38.302Z,61.40
2023-01-24T18:29:40.338Z,60.68
2023-01-24T18:32:42.619Z,59.16
2023-01-24T18:35:44.662Z,60.13
2023-01-24T18:38:46.840Z,59.13
2023-01-24T18:41:48.695Z,58.82
2023-01-24T18:44:50.609Z,58.46
2023-01-24T18:47:52.780Z,59.42
2023-01-24T18:50:54.618Z,59.10
2023-01-24T18:53:56.646Z,60.52
2023-01-24T18:56:58.526Z,61.17
2023-01-24T19:00:00.515Z,61.36
2023-01-24T19:03:02.511Z,61.91
2023-01-24T19:06:04.564Z,62.01
2023-01-24T19:09:07.378Z,61.68
2023-01-24T19:12:10.622Z,60.73
2023-01-24T19:15:13.092Z,61.14
2023-01-24T19:18:15.209Z,60.60
2023-01-24T19:21:18.093Z,59.49
2023-01-24T19:24:20.304Z,61.11
2023-01-24T19:27:22.306Z,62.34
2023-01-24T19:30:24.314Z,60.20
2023-01-24T19:33:26.214Z,60.92
2023-01-24T19:36:28.357Z,62.22
2023-01-24T19:39:30.401Z,63.78
2023-01-24T19:42:32.378Z,63.72
2023-01-24T19:45:34.296Z,63.96
2023-01-24T19:48:36.310Z,63.29
2023-01-24T19:51:38.305Z,62.36
2023-01-24T19:54:40.189Z,63.81
2023-01-24T19:57:42.137Z,62.08
2023-01-24T20:00:44.446Z,62.64
2023-01-24T20:03:46.498Z,63.39
2023-01-24T20:06:48.537Z,61.89
2023-01-24T20:09:51.278Z,60.46
2023-01-24T20:12:53.540Z,60.80
2023-01-24T20:15:55.591Z,63.51
2023-01-24T20:19:01.293Z,65.55
2023-01-24T20:22:03.246Z,66.00
2023-01-24T20:25:17.697Z,65.16
2023-01-24T20:28:20.960Z,64.41
2023-01-24T20:31:25.060Z,63.92
2023-01-24T20:34:29.731Z,64.37
2023-01-24T20:37:31.606Z,64.99
2023-01-24T20:40:33.568Z,64.84
2023-01-24T20:43:36.249Z,62.45
2023-01-24T20:46:38.282Z,63.33
2023-01-24T20:49:40.395Z,62.13
2023-01-24T20:52:42.265Z,65.24
2023-01-24T20:55:46.787Z,66.52
2023-01-24T20:58:50.639Z,67.46
2023-01-24T21:01:52.600Z,69.46
2023-01-24T21:04:54.602Z,67.76
2023-01-24T21:07:56.484Z,69.02
2023-01-24T21:10:58.527Z,66.43
2023-01-24T21:14:01.493Z,67.94
2023-01-24T21:17:03.390Z,70.48
2023-01-24T21:20:05.518Z,70.04
2023-01-24T21:23:09.392Z,68.30
2023-01-24T21:26:12.499Z,66.58
2023-01-24T21:29:14.960Z,66.01
2023-01-24T21:32:16.897Z,65.67
2023-01-24T21:35:18.866Z,66.79
2023-01-24T21:38:20.764Z,67.97
2023-01-24T21:41:41.803Z,68.50
2023-01-24T21:44:43.690Z,67.77
2023-01-24T21:47:48.593Z,65.61
2023-01-24T21:50:50.493Z,63.85
2023-01-24T21:54:06.617Z,64.01
2023-01-24T21:57:32.816Z,64.62
2023-01-24T22:00:35.434Z,67.85
2023-01-24T22:03:37.323Z,67.71
2023-01-24T22:06:39.250Z,67.53
2023-01-24T22:09:41.717Z,65.70
2023-01-24T22:12:43.603Z,67.13
2023-01-24T22:15:45.761Z,67.68
2023-01-24T22:18:47.974Z,67.59
2023-01-24T22:21:50.129Z,66.06
2023-01-24T22:25:01.420Z,67.30
2023-01-24T22:28:03.421Z,67.35
2023-01-24T22:31:05.724Z,68.15
2023-01-24T22:34:09.621Z,67.86
2023-01-24T22:37:25.339Z,68.51
2023-01-24T22:40:27.409Z,68.40
2023-01-24T22:43:29.323Z,68.49
2023-01-24T22:46:31.254Z,69.41
2023-01-24T22:49:36.139Z,68.08
2023-01-24T22:52:38.034Z,68.87
2023-01-24T22:55:40.478Z,67.59
2023-01-24T22:58:44.217Z,68.32
2023-01-24T23:01:46.085Z,67.16
2023-01-24T23:04:48.215Z,64.20
2023-01-24T23:07:50.272Z,63.70
2023-01-24T23:10:52.194Z,63.54
2023-01-24T23:14:13.094Z,64.74
2023-01-24T23:17:15.527Z,65.98
2023-01-24T23:20:35.950Z,65.28
2023-01-24T23:23:37.908Z,66.24
2023-01-24T23:26:40.410Z,65.66
2023-01-24T23:29:42.346Z,71.12
2023-01-24T23:32:47.328Z,70.70
2023-01-24T23:35:49.165Z,69.83
2023-01-24T23:38:51.030Z,72.21
2023-01-24T23:41:52.847Z,73.06
2023-01-24T23:44:57.501Z,70.64
2023-01-24T23:48:00.447Z,69.65
2023-01-24T23:51:02.383Z,69.32
2023-01-24T23:54:04.479Z,68.69
2023-01-24T23:57:06.451Z,70.50
